createdAt,value
2019-04-05T00:01:27.605Z,96948.66
2019-04-05T00:04:17.498Z,96942.70
2019-04-05T00:07:07.784Z,96941.98
2019-04-05T00:09:57.641Z,96940.22
2019-04-05T00:12:31.306Z,96939.58
2019-04-05T00:15:21.474Z,96936.61
2019-04-05T00:18:15.178Z,96928.27
2019-04-05T00:20:48.672Z,96928.56
2019-04-05T00:23:38.860Z,96924.93
2019-04-05T00:26:28.772Z,96924.20
2019-04-05T00:29:19.118Z,96919.77
2019-04-05T00:32:01.222Z,96911.60
2019-04-05T00:34:44.478Z,96918.27
2019-04-05T00:37:26.208Z,96911.80
2019-04-05T00:40:16.637Z,96913.92
2019-04-05T00:42:47.827Z,96916.32
2019-04-05T00:45:28.474Z,96920.75
2019-04-05T00:48:16.788Z,96918.44
2019-04-05T00:50:47.989Z,96928.45
2019-04-05T00:53:20.170Z,96923.80
2019-04-05T00:56:10.090Z,96918.42
2019-04-05T00:58:41.609Z,96922.77
2019-04-05T01:01:14.113Z,96915.27
2019-04-05T01:04:04.098Z,96919.33
2019-04-05T01:06:38.208Z,96908.44
2019-04-05T01:09:33.439Z,96912.67
2019-04-05T01:15:54.765Z,96910.56
2019-04-05T01:21:50.644Z,96898.98
2019-04-05T01:24:32.189Z,96907.89
2019-04-05T01:30:12.581Z,96915.31
2019-04-05T01:33:03.276Z,96918.08
2019-04-05T01:35:53.765Z,96916.05
2019-04-05T01:41:41.481Z,96931.23
2019-04-05T01:44:16.992Z,96936.85
2019-04-05T01:47:33.102Z,96933.98
2019-04-05T01:50:22.923Z,96929.16
2019-04-05T01:53:13.991Z,96936.05
2019-04-05T01:56:04.847Z,96930.84
2019-04-05T01:58:55.003Z,96945.83
2019-04-05T02:01:46.731Z,96867.45
2019-04-05T02:04:38.000Z,96952.89
2019-04-05T02:07:46.938Z,96954.91
2019-04-05T02:10:19.075Z,96955.10
2019-04-05T02:13:04.399Z,96955.95
2019-04-05T02:15:46.661Z,96962.32
2019-04-05T02:21:12.590Z,96953.70
2019-04-05T02:23:54.952Z,96958.99
2019-04-05T02:29:26.729Z,96820.59
2019-04-05T02:32:11.579Z,96952.52
2019-04-05T02:34:54.187Z,96950.48
2019-04-05T02:40:23.858Z,96951.23
2019-04-05T02:43:37.364Z,96947.25
2019-04-05T02:46:23.780Z,96959.30
2019-04-05T02:49:06.043Z,96951.03
2019-04-05T02:51:40.538Z,96956.52
2019-04-05T02:54:39.620Z,96963.73
2019-04-05T02:57:29.626Z,96817.58
2019-04-05T03:00:21.040Z,96959.47
2019-04-05T03:02:53.626Z,96964.02
2019-04-05T03:05:33.424Z,96964.20
2019-04-05T03:08:23.834Z,96959.47
2019-04-05T03:11:34.987Z,96962.16
2019-04-05T03:14:45.017Z,96958.07
2019-04-05T03:17:39.027Z,96951.41
2019-04-05T03:20:11.316Z,96952.53
2019-04-05T03:26:20.865Z,96941.22
2019-04-05T03:29:12.924Z,96953.63
2019-04-05T03:32:03.489Z,96956.38
2019-04-05T03:34:37.808Z,96952.31
2019-04-05T03:37:10.130Z,96948.98
2019-04-05T03:39:42.427Z,96951.59
2019-04-05T03:42:33.927Z,96952.89
2019-04-05T03:45:24.006Z,96957.61
2019-04-05T03:47:57.064Z,96937.53
2019-04-05T03:50:48.623Z,96940.30
2019-04-05T03:53:38.618Z,96950.31
2019-04-05T03:56:29.098Z,96952.44
2019-04-05T03:59:24.717Z,96944.29
2019-04-05T04:02:15.021Z,96947.14
2019-04-05T04:07:58.959Z,96945.22
2019-04-05T04:11:09.736Z,96948.92
2019-04-05T04:14:00.949Z,96948.34
2019-04-05T04:16:51.594Z,96811.89
2019-04-05T04:19:41.859Z,96950.20
2019-04-05T04:22:24.847Z,96958.64
2019-04-05T04:25:07.362Z,96951.42
2019-04-05T04:27:40.449Z,96942.34
2019-04-05T04:30:31.672Z,96939.55
2019-04-05T04:33:14.427Z,96949.27
2019-04-05T04:35:55.984Z,96949.55
2019-04-05T04:38:47.658Z,96942.13
2019-04-05T04:41:38.963Z,96948.44
2019-04-05T04:44:10.797Z,96955.69
2019-04-05T04:47:09.250Z,96958.45
2019-04-05T04:49:41.035Z,96964.12
2019-04-05T04:52:13.068Z,96964.12
2019-04-05T04:55:03.119Z,96968.47
2019-04-05T04:58:16.080Z,96976.04
2019-04-05T05:00:48.967Z,96973.63
2019-04-05T05:05:59.095Z,96976.80
2019-04-05T05:08:49.944Z,96980.05
2019-04-05T05:11:39.983Z,96981.44
2019-04-05T05:14:31.617Z,96980.89
2019-04-05T05:17:42.886Z,96979.95
2019-04-05T05:20:34.436Z,96983.48
2019-04-05T05:23:09.359Z,96983.77
2019-04-05T05:25:53.988Z,96977.73
2019-04-05T05:28:34.690Z,96969.95
2019-04-05T05:31:26.311Z,96966.98
2019-04-05T05:34:16.561Z,96974.59
2019-04-05T05:37:08.867Z,96988.86
2019-04-05T05:39:40.687Z,96978.47
2019-04-05T05:42:12.335Z,96978.78
2019-04-05T05:45:02.263Z,96980.79
2019-04-05T05:47:33.449Z,96981.63
2019-04-05T05:50:05.428Z,96980.34
2019-04-05T05:55:33.916Z,96971.17
2019-04-05T05:58:07.413Z,96976.61
2019-04-05T06:00:38.617Z,96973.11
2019-04-05T06:03:28.815Z,96973.55
2019-04-05T06:06:18.759Z,96979.66
2019-04-05T06:09:19.687Z,96971.79
2019-04-05T06:12:03.967Z,96962.05
2019-04-05T06:14:53.942Z,96961.75
2019-04-05T06:17:43.855Z,96957.94
2019-04-05T06:20:15.812Z,96957.09
2019-04-05T06:22:47.684Z,96958.05
2019-04-05T06:25:19.083Z,96949.69
2019-04-05T06:28:09.185Z,96955.27
2019-04-05T06:30:59.190Z,96942.46
2019-04-05T06:33:49.215Z,96893.45
2019-04-05T06:36:21.795Z,96948.25
2019-04-05T06:38:52.938Z,96951.77
2019-04-05T06:41:24.054Z,96960.33
2019-04-05T06:43:56.235Z,96960.20
2019-04-05T06:46:45.875Z,96960.02
2019-04-05T06:49:17.944Z,96959.61
2019-04-05T06:51:50.004Z,96960.98
2019-04-05T06:54:20.839Z,96958.88
2019-04-05T06:56:51.696Z,96961.64
2019-04-05T06:59:41.491Z,96964.08
2019-04-05T07:02:12.552Z,96971.75
2019-04-05T07:04:43.515Z,96965.60
2019-04-05T07:07:17.667Z,96969.03
2019-04-05T07:09:49.341Z,96966.63
2019-04-05T07:12:21.750Z,96964.30
2019-04-05T07:15:11.667Z,96963.20
2019-04-05T07:18:01.468Z,96964.95
2019-04-05T07:20:32.310Z,96965.16
2019-04-05T07:23:22.099Z,96964.95
2019-04-05T07:25:53.076Z,96966.63
2019-04-05T07:28:25.223Z,96965.67
2019-04-05T07:31:05.812Z,96968.91
2019-04-05T07:33:36.774Z,96963.38
2019-04-05T07:36:07.750Z,96967.69
2019-04-05T07:38:57.466Z,96971.46
2019-04-05T07:41:33.341Z,96969.17
2019-04-05T07:44:36.964Z,96966.44
2019-04-05T07:46:57.057Z,96963.58
2019-04-05T07:49:32.067Z,96962.72
2019-04-05T07:52:22.133Z,96960.67
2019-04-05T07:54:55.339Z,96844.42
2019-04-05T07:57:46.734Z,96964.60
2019-04-05T08:00:55.199Z,96971.72
2019-04-05T08:03:46.320Z,96976.08
2019-04-05T08:06:37.564Z,96975.35
2019-04-05T08:09:27.791Z,96972.98
2019-04-05T08:11:58.872Z,96980.00
2019-04-05T08:14:30.680Z,96981.50
2019-04-05T08:17:01.874Z,96984.94
2019-04-05T08:19:32.685Z,96990.58
2019-04-05T08:22:22.574Z,96985.36
2019-04-05T08:25:12.315Z,96991.30
2019-04-05T08:28:02.234Z,96857.20
2019-04-05T08:30:52.015Z,97004.71
2019-04-05T08:33:22.833Z,96998.27
2019-04-05T08:35:54.182Z,97000.67
2019-04-05T08:39:02.967Z,97008.09
2019-04-05T08:41:52.779Z,97000.95
2019-04-05T08:45:03.147Z,97004.86
2019-04-05T08:47:53.119Z,97003.06
2019-04-05T08:50:25.140Z,97007.28
2019-04-05T08:52:56.127Z,97005.11
2019-04-05T08:55:45.999Z,97011.02
2019-04-05T08:58:35.951Z,97004.34
2019-04-05T09:01:06.992Z,97010.92
2019-04-05T09:03:38.371Z,97006.80
2019-04-05T09:06:09.510Z,96994.73
2019-04-05T09:08:40.455Z,96998.11
2019-04-05T09:11:11.852Z,96990.31
2019-04-05T09:14:02.889Z,96989.44
2019-04-05T09:19:22.769Z,96986.38
2019-04-05T09:21:43.359Z,96980.31
2019-04-05T09:24:14.308Z,96974.69
2019-04-05T09:27:04.263Z,96971.98
2019-04-05T09:29:59.520Z,96964.12
2019-04-05T09:32:30.760Z,96962.80
2019-04-05T09:35:01.601Z,96955.59
2019-04-05T09:37:32.508Z,96960.22
2019-04-05T09:40:22.559Z,96964.87
2019-04-05T09:42:53.931Z,96957.59
2019-04-05T09:45:45.748Z,96956.17
2019-04-05T09:48:36.255Z,96950.52
2019-04-05T09:51:07.334Z,96944.33
2019-04-05T09:53:39.074Z,96944.53
2019-04-05T09:56:09.924Z,96937.13
2019-04-05T09:58:40.752Z,96935.31
2019-04-05T10:01:11.667Z,96930.64
2019-04-05T10:03:42.582Z,96929.39
2019-04-05T10:06:13.418Z,96929.91
2019-04-05T10:08:44.787Z,96930.37
2019-04-05T10:11:15.658Z,96927.95
2019-04-05T10:14:05.872Z,96927.13
2019-04-05T10:16:42.016Z,96932.25
2019-04-05T10:19:22.656Z,96940.44
2019-04-05T10:21:53.597Z,96931.73
2019-04-05T10:24:24.491Z,96926.72
2019-04-05T10:27:14.201Z,96917.05
2019-04-05T10:29:45.785Z,96914.13
2019-04-05T10:32:35.892Z,96911.95
2019-04-05T10:35:07.914Z,96872.08
2019-04-05T10:37:39.057Z,96905.02
2019-04-05T10:40:11.052Z,96910.27
2019-04-05T10:43:00.684Z,96909.84
2019-04-05T10:45:31.608Z,96905.30
2019-04-05T10:48:21.225Z,96906.61
2019-04-05T10:51:10.966Z,96902.89
2019-04-05T10:53:41.849Z,96908.45
2019-04-05T10:56:33.333Z,96911.84
2019-04-05T10:59:24.129Z,96907.34
2019-04-05T11:02:15.826Z,96905.91
2019-04-05T11:04:47.803Z,96768.98
2019-04-05T11:07:18.884Z,96900.08
2019-04-05T11:12:46.255Z,96898.64
2019-04-05T11:15:36.533Z,96894.74
2019-04-05T11:18:07.653Z,96888.31
2019-04-05T11:20:57.624Z,96894.86
2019-04-05T11:23:34.114Z,96890.41
2019-04-05T11:26:07.795Z,96895.95
2019-04-05T11:28:38.774Z,96891.23
2019-04-05T11:31:28.495Z,96896.90
2019-04-05T11:34:00.131Z,96903.45
2019-04-05T11:36:41.877Z,96891.96
2019-04-05T11:39:12.820Z,96780.75
2019-04-05T11:42:22.637Z,96893.16
2019-04-05T11:44:54.533Z,96891.07
2019-04-05T11:47:44.540Z,96894.75
2019-04-05T11:50:16.142Z,96891.66
2019-04-05T11:53:06.536Z,96896.77
2019-04-05T11:55:38.351Z,96897.53
2019-04-05T11:58:09.234Z,96899.18
2019-04-05T12:01:17.773Z,96887.44
2019-04-05T12:04:08.117Z,96887.79
2019-04-05T12:06:39.116Z,96888.84
2019-04-05T12:09:31.500Z,96887.64
2019-04-05T12:12:02.288Z,96887.50
2019-04-05T12:14:52.299Z,96891.80
2019-04-05T12:17:42.167Z,96891.34
2019-04-05T12:20:33.251Z,96884.56
2019-04-05T12:23:24.938Z,96889.91
2019-04-05T12:25:55.800Z,96894.45
2019-04-05T12:28:45.510Z,96888.27
2019-04-05T12:34:45.162Z,96888.03
2019-04-05T12:37:34.927Z,96882.81
2019-04-05T12:40:10.279Z,96882.93
2019-04-05T12:42:59.908Z,96881.85
2019-04-05T12:45:49.971Z,96873.62
2019-04-05T12:48:39.636Z,96865.69
2019-04-05T12:51:17.581Z,96863.79
2019-04-05T12:53:48.798Z,96864.55
2019-04-05T12:56:19.691Z,96866.20
2019-04-05T12:58:55.505Z,96860.87
2019-04-05T13:01:45.740Z,96859.69
2019-04-05T13:04:20.313Z,96863.59
2019-04-05T13:07:09.517Z,96856.95
2019-04-05T13:09:59.254Z,96854.61
2019-04-05T13:12:30.333Z,96847.47
2019-04-05T13:15:11.813Z,96841.66
2019-04-05T13:17:52.791Z,96843.03
2019-04-05T13:20:42.636Z,96839.23
2019-04-05T13:23:14.441Z,96840.48
2019-04-05T13:26:04.864Z,96840.60
2019-04-05T13:28:38.830Z,96849.38
2019-04-05T13:31:29.088Z,96838.09
2019-04-05T13:34:02.790Z,96847.48
2019-04-05T13:36:53.025Z,96839.09
2019-04-05T13:39:42.991Z,96846.66
2019-04-05T13:42:14.056Z,96844.80
2019-04-05T13:45:22.039Z,96846.00
2019-04-05T13:48:12.087Z,96838.05
2019-04-05T13:51:02.348Z,96838.29
2019-04-05T13:53:33.521Z,96832.31
2019-04-05T13:56:23.694Z,96836.70
2019-04-05T13:59:13.686Z,96830.83
2019-04-05T14:02:06.252Z,96831.03
2019-04-05T14:04:36.675Z,96829.91
2019-04-05T14:07:26.818Z,96826.91
2019-04-05T14:10:16.699Z,96825.88
2019-04-05T14:13:07.663Z,96818.43
2019-04-05T14:15:58.185Z,96826.66
2019-04-05T14:18:29.473Z,96824.70
2019-04-05T14:21:00.872Z,96827.80
2019-04-05T14:23:39.500Z,96825.17
2019-04-05T14:26:19.985Z,96820.41
2019-04-05T14:28:54.071Z,96825.44
2019-04-05T14:31:25.247Z,96814.73
2019-04-05T14:33:57.736Z,96816.05
2019-04-05T14:36:39.472Z,96807.14
2019-04-05T14:39:10.980Z,96807.95
2019-04-05T14:41:43.433Z,96805.09
2019-04-05T14:44:20.808Z,96797.61
2019-04-05T14:46:51.740Z,96803.31
2019-04-05T14:49:41.837Z,96798.56
2019-04-05T14:52:31.850Z,96804.98
2019-04-05T14:55:21.826Z,96808.84
2019-04-05T14:58:29.688Z,96809.10
2019-04-05T15:01:00.652Z,96814.14
2019-04-05T15:04:01.077Z,96812.69
2019-04-05T15:06:51.456Z,96809.38
2019-04-05T15:09:25.367Z,96818.88
2019-04-05T15:11:58.661Z,96810.91
2019-04-05T15:14:32.843Z,96816.62
2019-04-05T15:17:22.553Z,96812.58
2019-04-05T15:23:09.900Z,96814.36
2019-04-05T15:26:02.944Z,96812.94
2019-04-05T15:31:59.618Z,96808.30
2019-04-05T15:34:52.563Z,96805.81
2019-04-05T15:40:25.743Z,96815.94
2019-04-05T15:43:25.045Z,96807.61
2019-04-05T15:45:55.960Z,96812.02
2019-04-05T15:48:46.027Z,96815.09
2019-04-05T15:51:35.952Z,96817.71
2019-04-05T15:57:03.385Z,96826.61
2019-04-05T16:02:33.906Z,96827.66
2019-04-05T16:05:16.329Z,96821.63
2019-04-05T16:07:47.462Z,96820.09
2019-04-05T16:10:18.546Z,96828.63
2019-04-05T16:13:09.315Z,96833.48
2019-04-05T16:16:02.548Z,96832.28
2019-04-05T16:18:33.561Z,96833.72
2019-04-05T16:21:23.833Z,96836.80
2019-04-05T16:27:09.263Z,96836.33
2019-04-05T16:30:02.380Z,96850.55
2019-04-05T16:32:58.581Z,96845.59
2019-04-05T16:35:29.633Z,96841.55
2019-04-05T16:40:55.340Z,96717.12
2019-04-05T16:43:50.404Z,96839.54
2019-04-05T16:56:00.429Z,96830.87
2019-04-05T16:58:52.231Z,96833.81
2019-04-05T17:01:34.595Z,96835.59
2019-04-05T17:04:08.610Z,96837.13
2019-04-05T17:07:02.353Z,96840.33
2019-04-05T17:09:37.964Z,96840.23
2019-04-05T17:18:48.546Z,96851.59
2019-04-05T17:21:40.394Z,96851.59
2019-04-05T17:24:52.124Z,96849.92
2019-04-05T17:28:01.625Z,96860.95
2019-04-05T17:31:29.567Z,96862.27
2019-04-05T17:35:00.283Z,96861.28
2019-04-05T17:40:58.664Z,96872.67
2019-04-05T17:43:30.415Z,96873.51
2019-04-05T17:46:20.543Z,96877.29
2019-04-05T17:49:10.339Z,96875.28
2019-04-05T17:51:42.388Z,96879.53
2019-04-05T17:54:17.661Z,96879.41
2019-04-05T17:56:49.832Z,96876.57
2019-04-05T17:59:25.565Z,96877.50
2019-04-05T18:01:57.096Z,96875.59
2019-04-05T18:04:31.659Z,96876.89
2019-04-05T18:07:03.294Z,96885.31
2019-04-05T18:09:37.251Z,96878.86
2019-04-05T18:12:12.809Z,96886.44
2019-04-05T18:15:05.586Z,96889.17
2019-04-05T18:17:57.614Z,96887.03
2019-04-05T18:20:28.656Z,96888.93
2019-04-05T18:23:25.303Z,96891.76
2019-04-05T18:26:12.310Z,96889.72
2019-04-05T18:31:41.738Z,96893.84
2019-04-05T18:34:31.592Z,96890.09
2019-04-05T18:37:03.987Z,96884.50
2019-04-05T18:39:55.158Z,96886.86
2019-04-05T18:45:07.233Z,96887.55
2019-04-05T18:47:57.739Z,96888.64
2019-04-05T18:50:37.253Z,96886.16
2019-04-05T18:53:37.527Z,96895.75
2019-04-05T18:56:21.820Z,96890.75
2019-04-05T18:59:16.739Z,96889.67
2019-04-05T19:01:50.816Z,96896.19
2019-04-05T19:04:42.716Z,96900.59
2019-04-05T19:07:13.897Z,96894.52
2019-04-05T19:13:16.733Z,96902.00
2019-04-05T19:26:02.144Z,96917.97
2019-04-05T19:49:11.774Z,96926.30
2019-04-05T19:52:01.603Z,96831.06
2019-04-05T19:54:49.935Z,96913.45
2019-04-05T19:58:29.542Z,96915.34
2019-04-05T20:04:47.302Z,96913.11
2019-04-05T20:07:42.594Z,96916.64
2019-04-05T20:10:14.108Z,96908.58
2019-04-05T20:15:57.009Z,96897.23
2019-04-05T20:18:38.176Z,96899.46
2019-04-05T20:22:04.727Z,96901.45
2019-04-05T20:28:28.686Z,96908.77
2019-04-05T20:35:04.918Z,96915.56
2019-04-05T20:37:56.183Z,96918.14
2019-04-05T20:41:14.314Z,96924.38
2019-04-05T20:46:54.060Z,96919.76
2019-04-05T20:50:06.980Z,96917.64
2019-04-05T20:53:17.615Z,96920.59
2019-04-05T21:01:54.619Z,96925.31
2019-04-05T21:04:45.082Z,96921.34
2019-04-05T21:07:23.233Z,96922.70
2019-04-05T21:10:03.914Z,96921.37
2019-04-05T21:12:53.911Z,96924.47
2019-04-05T21:15:53.693Z,96916.88
2019-04-05T21:18:44.600Z,96918.42
2019-04-05T21:21:41.740Z,96910.83
2019-04-05T21:24:52.205Z,96913.68
2019-04-05T21:27:42.342Z,96913.53
2019-04-05T21:30:38.060Z,96917.44
2019-04-05T21:36:51.156Z,96930.33
2019-04-05T21:39:49.362Z,96924.72
2019-04-05T21:42:30.641Z,96927.97
2019-04-05T21:45:13.396Z,96921.59
2019-04-05T21:47:59.961Z,96928.52
2019-04-05T21:50:33.683Z,96923.07
2019-04-05T21:53:24.264Z,96928.22
2019-04-05T21:56:18.925Z,96932.64
2019-04-05T21:59:08.778Z,96932.36
2019-04-05T22:02:02.562Z,96932.02
2019-04-05T22:04:54.601Z,96930.84
2019-04-05T22:07:44.650Z,96934.30
2019-04-05T22:10:34.699Z,96926.50
2019-04-05T22:13:24.788Z,96939.08
2019-04-05T22:16:14.567Z,96937.07
2019-04-05T22:19:06.238Z,96941.88
2019-04-05T22:21:48.390Z,96938.16
2019-04-05T22:24:34.359Z,96940.30
2019-04-05T22:27:27.705Z,96938.31
2019-04-05T22:30:17.920Z,96942.74
2019-04-05T22:36:27.138Z,96940.61
2019-04-05T22:39:21.654Z,96940.07
2019-04-05T22:41:52.711Z,96939.42
2019-04-05T22:44:42.610Z,96947.39
2019-04-05T22:47:32.784Z,96945.29
2019-04-05T22:50:06.622Z,96954.38
2019-04-05T22:52:56.615Z,96955.31
2019-04-05T22:55:49.738Z,96957.44
2019-04-05T23:04:37.410Z,96961.70
2019-04-05T23:07:28.342Z,96925.66
2019-04-05T23:19:42.182Z,96963.31
2019-04-05T23:25:37.223Z,96969.52
2019-04-05T23:31:21.095Z,96969.52
2019-04-05T23:34:01.198Z,96969.66
2019-04-05T23:39:42.598Z,96972.03
2019-04-05T23:55:33.486Z,96972.11
